Time;durP1;ratioP1;P1;durP2;ratioP2;P2;SDS_P1;SDS_P2;PMS_P1;PMS_P2;Temp;Humidity;BMP_temperature;BMP_pressure;BME280_temperature;BME280_humidity;BME280_pressure;Samples;Min_cycle;Max_cycle;Signal;HPM_P1;HPM_P2
2021/10/16 00:01:56;;;;;;;;;;;15.60;99.90;;;;;;5035804;28;1902;-49
2021/10/16 00:04:22;;;;;;;;;;;15.60;99.90;;;;;;5035824;28;879;-50
2021/10/16 00:06:48;;;;;;;;;;;15.60;99.90;;;;;;5034590;28;1473;-49
2021/10/16 00:09:14;;;;;;;;;;;15.60;99.90;;;;;;5038417;28;1362;-50
2021/10/16 00:11:40;;;;;;;;;;;15.60;99.90;;;;;;5039457;28;911;-50
2021/10/16 00:14:06;;;;;;;;;;;15.50;99.90;;;;;;5039320;28;879;-49
2021/10/16 00:16:32;;;;;;;;;;;15.50;99.90;;;;;;5039316;28;797;-50
2021/10/16 00:18:58;;;;;;;;;;;15.50;99.90;;;;;;5039044;28;757;-49
2021/10/16 00:21:24;;;;;;;;;;;15.50;99.90;;;;;;5039047;28;1906;-50
2021/10/16 00:23:50;;;;;;;;;;;15.50;99.90;;;;;;5039492;28;890;-49
2021/10/16 00:26:16;;;;;;;;;;;15.40;99.90;;;;;;5039370;28;1044;-49
2021/10/16 00:28:42;;;;;;;;;;;15.40;99.90;;;;;;5039413;28;809;-50
2021/10/16 00:31:08;;;;;;;;;;;15.40;99.90;;;;;;5038936;28;1021;-49
2021/10/16 00:33:34;;;;;;;;;;;15.40;99.90;;;;;;5036064;28;1493;-50
2021/10/16 00:36:01;;;;;;;;;;;15.40;99.90;;;;;;5038204;28;1370;-49
2021/10/16 00:38:27;;;;;;;;;;;15.40;99.90;;;;;;5038510;28;1162;-49
2021/10/16 00:40:53;;;;;;;;;;;15.30;99.90;;;;;;5038773;28;1902;-50
2021/10/16 00:43:19;;;;;;;;;;;15.30;99.90;;;;;;5038808;28;942;-50
2021/10/16 00:45:45;;;;;;;;;;;15.30;99.90;;;;;;5038348;28;968;-49
2021/10/16 00:48:11;;;;;;;;;;;15.30;99.90;;;;;;5038538;28;904;-49
2021/10/16 00:50:37;;;;;;;;;;;15.30;99.90;;;;;;5038607;28;918;-48
2021/10/16 00:53:03;;;;;;;;;;;15.30;99.90;;;;;;5038620;28;857;-49
2021/10/16 00:55:29;;;;;;;;;;;15.30;99.90;;;;;;5038603;28;892;-50
2021/10/16 00:57:57;;;;;;;;;;;15.30;99.90;;;;;;5038735;28;892;-49
2021/10/16 01:00:23;;;;;;;;;;;15.30;99.90;;;;;;5038538;28;1902;-50
2021/10/16 01:02:49;;;;;;;;;;;15.20;99.90;;;;;;5038559;28;878;-49
2021/10/16 01:05:15;;;;;;;;;;;15.20;99.90;;;;;;5038188;28;836;-50
2021/10/16 01:07:42;;;;;;;;;;;15.20;99.90;;;;;;5038374;28;838;-49
2021/10/16 01:10:09;;;;;;;;;;;15.20;99.90;;;;;;5038320;28;909;-49
2021/10/16 01:12:36;;;;;;;;;;;15.20;99.90;;;;;;5038441;28;899;-48
2021/10/16 01:15:05;;;;;;;;;;;15.10;99.90;;;;;;5038821;28;781;-49
2021/10/16 01:17:31;;;;;;;;;;;15.10;99.90;;;;;;5038062;28;1171;-49
2021/10/16 01:20:03;;;;;;;;;;;15.10;99.90;;;;;;5037426;28;1249;-49
2021/10/16 01:22:30;;;;;;;;;;;15.10;99.90;;;;;;5038416;28;876;-50
2021/10/16 01:24:56;;;;;;;;;;;15.10;99.90;;;;;;5038301;28;793;-49
2021/10/16 01:27:22;;;;;;;;;;;15.00;99.90;;;;;;5038257;28;817;-49
2021/10/16 01:29:49;;;;;;;;;;;15.00;99.90;;;;;;5037990;28;814;-48
2021/10/16 01:32:17;;;;;;;;;;;15.00;99.90;;;;;;5038281;28;765;-49
2021/10/16 01:34:44;;;;;;;;;;;15.00;99.90;;;;;;5037825;28;864;-49
2021/10/16 01:37:10;;;;;;;;;;;15.00;99.90;;;;;;5037473;28;1037;-49
2021/10/16 01:39:37;;;;;;;;;;;15.00;99.90;;;;;;5070038;28;897;-49
2021/10/16 01:42:03;;;;;;;;;;;14.90;99.90;;;;;;5037240;28;1902;-48
2021/10/16 01:44:29;;;;;;;;;;;15.00;99.90;;;;;;5037975;28;834;-50
2021/10/16 01:46:55;;;;;;;;;;;14.90;99.90;;;;;;5037643;28;757;-49
2021/10/16 01:49:21;;;;;;;;;;;14.90;99.90;;;;;;5037279;28;1144;-50
2021/10/16 01:51:48;;;;;;;;;;;14.90;99.90;;;;;;5037423;28;855;-49
2021/10/16 01:54:14;;;;;;;;;;;14.90;99.90;;;;;;5037508;28;789;-49
2021/10/16 01:56:41;;;;;;;;;;;14.90;99.90;;;;;;5037400;28;838;-49
2021/10/16 01:59:35;;;;;;;;;;;14.90;99.90;;;;;;5037606;28;1046;-49
2021/10/16 02:02:01;;;;;;;;;;;14.90;99.90;;;;;;5034239;28;1895;-49
2021/10/16 02:04:27;;;;;;;;;;;14.90;99.90;;;;;;5037406;28;850;-49
2021/10/16 02:06:53;;;;;;;;;;;14.90;99.90;;;;;;5037232;28;731;-49
2021/10/16 02:09:19;;;;;;;;;;;14.90;99.90;;;;;;5037186;28;948;-49
2021/10/16 02:11:45;;;;;;;;;;;14.80;99.90;;;;;;5037126;28;858;-50
2021/10/16 02:14:10;;;;;;;;;;;14.80;99.90;;;;;;5037002;28;1031;-49
2021/10/16 02:16:36;;;;;;;;;;;14.80;99.90;;;;;;5036882;28;878;-49
2021/10/16 02:19:03;;;;;;;;;;;14.80;99.90;;;;;;5036714;28;865;-50
2021/10/16 02:21:29;;;;;;;;;;;14.80;99.90;;;;;;5036383;28;1902;-50
2021/10/16 02:23:55;;;;;;;;;;;14.80;99.90;;;;;;5037092;28;897;-50
2021/10/16 02:26:21;;;;;;;;;;;14.80;99.90;;;;;;5036766;28;794;-49
2021/10/16 02:28:47;;;;;;;;;;;14.80;99.90;;;;;;5036715;28;750;-49
2021/10/16 02:31:13;;;;;;;;;;;14.70;99.90;;;;;;5036348;28;1330;-49
2021/10/16 02:33:39;;;;;;;;;;;14.70;99.90;;;;;;5036725;28;821;-49
2021/10/16 02:36:05;;;;;;;;;;;14.70;99.90;;;;;;5036564;28;953;-50
2021/10/16 02:38:31;;;;;;;;;;;14.70;99.90;;;;;;5036341;28;924;-50
2021/10/16 02:40:57;;;;;;;;;;;14.80;99.90;;;;;;5035529;28;2178;-49
2021/10/16 02:43:23;;;;;;;;;;;14.70;99.90;;;;;;5036233;28;895;-49
2021/10/16 02:45:49;;;;;;;;;;;14.70;99.90;;;;;;5036379;28;1012;-50
2021/10/16 02:48:15;;;;;;;;;;;14.70;99.90;;;;;;5036509;28;844;-48
2021/10/16 02:50:41;;;;;;;;;;;14.70;99.90;;;;;;5036549;28;866;-49
2021/10/16 02:53:07;;;;;;;;;;;14.70;99.90;;;;;;5036405;28;873;-49
2021/10/16 02:55:33;;;;;;;;;;;14.70;99.90;;;;;;5036417;28;813;-49
2021/10/16 02:57:58;;;;;;;;;;;14.70;99.90;;;;;;5036615;28;894;-50
2021/10/16 03:00:26;;;;;;;;;;;14.60;99.90;;;;;;5036552;28;1902;-49
2021/10/16 03:02:52;;;;;;;;;;;14.70;99.90;;;;;;5036558;28;798;-49
2021/10/16 03:05:18;;;;;;;;;;;14.60;99.90;;;;;;5036025;28;1031;-49
2021/10/16 03:07:44;;;;;;;;;;;14.60;99.90;;;;;;5036517;28;907;-49
2021/10/16 03:10:10;;;;;;;;;;;14.60;99.90;;;;;;5036229;28;896;-50
2021/10/16 03:12:36;;;;;;;;;;;14.60;99.90;;;;;;5036617;28;1070;-49
2021/10/16 03:15:02;;;;;;;;;;;14.60;99.90;;;;;;5036151;28;931;-50
2021/10/16 03:17:28;;;;;;;;;;;14.60;99.90;;;;;;5035980;28;777;-50
2021/10/16 03:19:54;;;;;;;;;;;14.60;99.90;;;;;;5035734;28;1122;-50
2021/10/16 03:22:20;;;;;;;;;;;14.60;99.90;;;;;;5036276;28;1906;-50
2021/10/16 03:24:46;;;;;;;;;;;14.60;99.90;;;;;;5036090;28;770;-49
2021/10/16 03:27:12;;;;;;;;;;;14.60;99.90;;;;;;5036055;28;869;-49
2021/10/16 03:29:38;;;;;;;;;;;14.60;99.90;;;;;;5036212;28;885;-50
2021/10/16 03:32:04;;;;;;;;;;;14.60;99.90;;;;;;5036347;28;919;-48
2021/10/16 03:34:30;;;;;;;;;;;14.60;99.90;;;;;;5035907;28;874;-50
2021/10/16 03:36:56;;;;;;;;;;;14.50;99.90;;;;;;5035021;28;1133;-49
2021/10/16 03:39:22;;;;;;;;;;;14.50;99.90;;;;;;5034726;28;842;-49
2021/10/16 03:41:48;;;;;;;;;;;14.50;99.90;;;;;;5036677;28;1973;-50
2021/10/16 03:44:14;;;;;;;;;;;14.50;99.90;;;;;;5039984;28;873;-49
2021/10/16 03:46:40;;;;;;;;;;;14.50;99.90;;;;;;5039974;28;989;-49
2021/10/16 03:49:06;;;;;;;;;;;14.50;99.90;;;;;;5039763;28;898;-48
2021/10/16 03:51:32;;;;;;;;;;;14.50;99.90;;;;;;5039649;28;886;-49
2021/10/16 03:53:58;;;;;;;;;;;14.50;99.90;;;;;;5040037;28;842;-49
2021/10/16 03:56:24;;;;;;;;;;;14.50;99.90;;;;;;5039566;28;877;-48
2021/10/16 03:58:50;;;;;;;;;;;14.40;99.90;;;;;;5039654;28;868;-48
2021/10/16 04:01:16;;;;;;;;;;;14.40;99.90;;;;;;5039534;28;1891;-48
2021/10/16 04:03:42;;;;;;;;;;;14.50;99.90;;;;;;5039432;28;754;-49
2021/10/16 04:06:08;;;;;;;;;;;14.40;99.90;;;;;;5039404;28;888;-49
2021/10/16 04:08:34;;;;;;;;;;;14.40;99.90;;;;;;5039472;28;869;-49
2021/10/16 04:10:59;;;;;;;;;;;14.40;99.90;;;;;;5039323;28;869;-49
2021/10/16 04:13:25;;;;;;;;;;;14.40;99.90;;;;;;5039527;28;912;-49
2021/10/16 04:15:51;;;;;;;;;;;14.40;99.90;;;;;;5039519;28;884;-50
2021/10/16 04:18:17;;;;;;;;;;;14.40;99.90;;;;;;5039335;28;872;-49
2021/10/16 04:20:43;;;;;;;;;;;14.40;99.90;;;;;;5038869;28;1914;-49
2021/10/16 04:23:09;;;;;;;;;;;14.40;99.90;;;;;;5039504;28;843;-49
2021/10/16 04:25:35;;;;;;;;;;;14.40;99.90;;;;;;5039200;28;918;-50
2021/10/16 04:28:01;;;;;;;;;;;14.40;99.90;;;;;;5039119;28;845;-50
2021/10/16 04:30:27;;;;;;;;;;;14.40;99.90;;;;;;5038778;28;1345;-49
2021/10/16 04:32:53;;;;;;;;;;;14.40;99.90;;;;;;5038822;28;1413;-49
2021/10/16 04:35:19;;;;;;;;;;;14.30;99.90;;;;;;5038851;28;900;-50
2021/10/16 04:37:45;;;;;;;;;;;14.40;99.90;;;;;;5039195;28;875;-49
2021/10/16 04:40:17;;;;;;;;;;;14.40;99.90;;;;;;5038940;28;816;-49
2021/10/16 04:42:44;;;;;;;;;;;14.30;99.90;;;;;;5039069;28;1894;-49
2021/10/16 04:45:11;;;;;;;;;;;14.40;99.90;;;;;;5038969;28;1018;-49
2021/10/16 04:47:37;;;;;;;;;;;14.30;99.90;;;;;;5038300;28;1020;-49
2021/10/16 04:50:04;;;;;;;;;;;14.30;99.90;;;;;;5038796;28;872;-49
2021/10/16 04:52:30;;;;;;;;;;;14.40;99.90;;;;;;5038370;28;829;-49
2021/10/16 04:54:56;;;;;;;;;;;14.30;99.90;;;;;;5038892;28;789;-49
2021/10/16 04:57:22;;;;;;;;;;;14.30;99.90;;;;;;5038854;28;829;-48
2021/10/16 04:59:47;;;;;;;;;;;14.30;99.90;;;;;;5038777;28;904;-49
2021/10/16 05:02:14;;;;;;;;;;;14.30;99.90;;;;;;5038594;28;1961;-49
2021/10/16 05:04:40;;;;;;;;;;;14.30;99.90;;;;;;5036946;28;1574;-50
2021/10/16 05:07:06;;;;;;;;;;;14.30;99.90;;;;;;5038688;28;805;-50
2021/10/16 05:09:32;;;;;;;;;;;14.30;99.90;;;;;;5039001;28;750;-50
2021/10/16 05:11:58;;;;;;;;;;;14.30;99.90;;;;;;5038346;28;963;-50
2021/10/16 05:14:24;;;;;;;;;;;14.30;99.90;;;;;;5038867;28;757;-48
2021/10/16 05:16:51;;;;;;;;;;;14.30;99.90;;;;;;5038138;28;837;-48
2021/10/16 05:19:17;;;;;;;;;;;14.30;99.90;;;;;;5038016;28;885;-50
2021/10/16 05:21:42;;;;;;;;;;;14.30;99.90;;;;;;5037803;28;1965;-49
2021/10/16 05:24:09;;;;;;;;;;;14.20;99.90;;;;;;5038043;28;869;-49
2021/10/16 05:26:35;;;;;;;;;;;14.20;99.90;;;;;;5038057;28;774;-50
2021/10/16 05:29:02;;;;;;;;;;;14.20;99.90;;;;;;5037890;28;882;-49
2021/10/16 05:31:28;;;;;;;;;;;14.30;99.90;;;;;;5038059;28;903;-49
2021/10/16 05:33:54;;;;;;;;;;;14.20;99.90;;;;;;5036566;28;860;-49
2021/10/16 05:36:20;;;;;;;;;;;14.20;99.90;;;;;;5037732;28;859;-49
2021/10/16 05:38:46;;;;;;;;;;;14.20;99.90;;;;;;5038669;28;1006;-49
2021/10/16 05:41:12;;;;;;;;;;;14.20;99.90;;;;;;5037723;28;1948;-49
2021/10/16 05:43:38;;;;;;;;;;;14.20;99.90;;;;;;5038318;28;1024;-49
2021/10/16 05:46:03;;;;;;;;;;;14.20;99.90;;;;;;5037668;28;836;-50
2021/10/16 05:48:30;;;;;;;;;;;14.20;99.90;;;;;;5037525;28;876;-50
2021/10/16 05:50:57;;;;;;;;;;;14.20;99.90;;;;;;5036545;28;948;-50
2021/10/16 05:53:22;;;;;;;;;;;14.20;99.90;;;;;;5035763;28;1528;-50
2021/10/16 05:55:48;;;;;;;;;;;14.20;99.90;;;;;;5037004;28;1335;-49
2021/10/16 05:58:14;;;;;;;;;;;14.20;99.90;;;;;;5037143;28;956;-49
2021/10/16 06:00:40;;;;;;;;;;;14.20;99.90;;;;;;5036204;28;837;-49
2021/10/16 06:03:06;;;;;;;;;;;14.20;99.90;;;;;;5036891;28;1963;-49
2021/10/16 06:05:34;;;;;;;;;;;14.10;99.90;;;;;;5036601;28;861;-49
2021/10/16 06:08:00;;;;;;;;;;;14.20;99.90;;;;;;5037226;28;1060;-49
2021/10/16 06:10:26;;;;;;;;;;;14.10;99.90;;;;;;5037491;28;868;-48
2021/10/16 06:12:52;;;;;;;;;;;14.10;99.90;;;;;;5036230;28;2295;-48
2021/10/16 06:15:18;;;;;;;;;;;14.20;99.90;;;;;;5037187;28;833;-49
2021/10/16 06:17:44;;;;;;;;;;;14.10;99.90;;;;;;5036648;28;1366;-50
2021/10/16 06:20:10;;;;;;;;;;;14.10;99.90;;;;;;5034080;28;1406;-49
2021/10/16 06:22:36;;;;;;;;;;;14.10;99.90;;;;;;5036929;28;1950;-50
2021/10/16 06:25:02;;;;;;;;;;;14.20;99.90;;;;;;5037547;28;781;-48
2021/10/16 06:27:28;;;;;;;;;;;14.10;99.90;;;;;;5036946;28;966;-49
2021/10/16 06:29:54;;;;;;;;;;;14.10;99.90;;;;;;5037494;28;805;-49
2021/10/16 06:32:20;;;;;;;;;;;14.10;99.90;;;;;;5036759;28;853;-50
2021/10/16 06:34:46;;;;;;;;;;;14.10;99.90;;;;;;5036549;28;852;-49
2021/10/16 06:37:12;;;;;;;;;;;14.10;99.90;;;;;;5036283;28;1331;-49
2021/10/16 06:39:38;;;;;;;;;;;14.10;99.90;;;;;;5025766;23;1533;-49
2021/10/16 06:42:04;;;;;;;;;;;14.10;99.90;;;;;;4996536;28;1906;-49
2021/10/16 06:44:30;;;;;;;;;;;14.10;99.90;;;;;;4997158;28;1200;-49
2021/10/16 06:46:57;;;;;;;;;;;14.10;99.90;;;;;;4997365;28;1026;-49
2021/10/16 06:49:26;;;;;;;;;;;14.10;99.90;;;;;;4963593;28;909;-48
2021/10/16 06:51:52;;;;;;;;;;;14.10;99.90;;;;;;5012471;28;805;-49
2021/10/16 06:54:18;;;;;;;;;;;14.10;99.90;;;;;;4996833;28;834;-49
2021/10/16 06:56:45;;;;;;;;;;;14.10;99.90;;;;;;4997140;28;854;-49
2021/10/16 06:59:13;;;;;;;;;;;14.10;99.90;;;;;;4997499;28;849;-50
2021/10/16 07:01:39;;;;;;;;;;;14.10;99.90;;;;;;4979053;28;1918;-49
2021/10/16 07:04:05;;;;;;;;;;;14.10;99.90;;;;;;4996928;28;1254;-49
2021/10/16 07:06:31;;;;;;;;;;;14.10;99.90;;;;;;4996566;28;1290;-50
2021/10/16 07:08:57;;;;;;;;;;;14.10;99.90;;;;;;4996418;28;1211;-50
2021/10/16 07:11:23;;;;;;;;;;;14.10;99.90;;;;;;4996414;28;1315;-49
2021/10/16 07:13:49;;;;;;;;;;;14.10;99.90;;;;;;4996301;28;1287;-50
2021/10/16 07:16:15;;;;;;;;;;;14.10;99.90;;;;;;4996068;28;1084;-49
2021/10/16 07:18:41;;;;;;;;;;;14.10;99.90;;;;;;4997091;28;980;-49
2021/10/16 07:21:07;;;;;;;;;;;14.10;99.90;;;;;;4997333;28;1910;-49
2021/10/16 07:23:33;;;;;;;;;;;14.20;99.90;;;;;;4997065;28;786;-49
2021/10/16 07:26:00;;;;;;;;;;;14.10;99.90;;;;;;4996548;28;902;-49
2021/10/16 07:28:26;;;;;;;;;;;14.10;99.90;;;;;;4996849;28;1219;-50
2021/10/16 07:30:52;;;;;;;;;;;14.10;99.90;;;;;;4996275;28;1322;-49
2021/10/16 07:33:18;;;;;;;;;;;14.20;99.90;;;;;;4996394;28;1287;-48
2021/10/16 07:35:46;;;;;;;;;;;14.40;99.90;;;;;;4996411;28;1286;-48
2021/10/16 07:38:12;;;;;;;;;;;14.90;99.90;;;;;;4996781;28;774;-50
2021/10/16 07:40:39;;;;;;;;;;;15.40;99.90;;;;;;4996080;28;1457;-49
2021/10/16 07:43:07;;;;;;;;;;;15.80;99.90;;;;;;5005113;28;1906;-49
2021/10/16 07:45:34;;;;;;;;;;;16.00;99.90;;;;;;4996104;28;1144;-49
2021/10/16 07:48:00;;;;;;;;;;;16.30;99.90;;;;;;5011983;28;1010;-50
2021/10/16 07:50:26;;;;;;;;;;;16.50;99.90;;;;;;4996352;28;1159;-49
2021/10/16 07:52:52;;;;;;;;;;;16.60;99.90;;;;;;4996249;28;1191;-50
2021/10/16 07:55:18;;;;;;;;;;;16.70;99.90;;;;;;4996340;28;766;-51
2021/10/16 07:57:44;;;;;;;;;;;16.80;99.90;;;;;;4996244;28;1236;-49
2021/10/16 08:00:10;;;;;;;;;;;16.90;99.90;;;;;;4996167;28;1211;-49
2021/10/16 08:02:38;;;;;;;;;;;16.90;99.90;;;;;;4996193;28;1902;-50
2021/10/16 08:05:04;;;;;;;;;;;17.10;99.90;;;;;;4996572;28;810;-50
2021/10/16 08:07:30;;;;;;;;;;;17.10;99.90;;;;;;4997167;28;1556;-49
2021/10/16 08:09:56;;;;;;;;;;;16.80;99.90;;;;;;4996357;28;1040;-48
2021/10/16 08:12:22;;;;;;;;;;;16.50;99.90;;;;;;4996010;28;1369;-51
2021/10/16 08:14:48;;;;;;;;;;;16.20;99.90;;;;;;4995960;28;1204;-48
2021/10/16 08:17:16;;;;;;;;;;;16.10;99.90;;;;;;4994716;28;865;-48
2021/10/16 08:19:44;;;;;;;;;;;15.90;99.90;;;;;;4996031;28;816;-50
2021/10/16 08:22:10;;;;;;;;;;;15.80;99.90;;;;;;4996213;28;1965;-48
2021/10/16 08:24:36;;;;;;;;;;;15.80;99.90;;;;;;4995680;28;888;-50
2021/10/16 08:27:02;;;;;;;;;;;15.70;99.90;;;;;;4996405;28;1007;-48
2021/10/16 08:29:28;;;;;;;;;;;15.60;99.90;;;;;;5006566;28;1351;-48
2021/10/16 08:31:54;;;;;;;;;;;15.60;99.90;;;;;;5018385;28;847;-49
2021/10/16 08:34:20;;;;;;;;;;;15.50;99.90;;;;;;5017234;28;913;-50
2021/10/16 08:36:47;;;;;;;;;;;15.50;99.90;;;;;;5018117;28;914;-50
2021/10/16 08:39:13;;;;;;;;;;;15.50;99.90;;;;;;5014521;28;1118;-50
2021/10/16 08:41:40;;;;;;;;;;;15.50;99.90;;;;;;4998461;28;1906;-49
2021/10/16 08:44:06;;;;;;;;;;;15.50;99.90;;;;;;4999538;28;744;-50
2021/10/16 08:46:32;;;;;;;;;;;15.40;99.90;;;;;;4999605;28;907;-49
2021/10/16 08:49:01;;;;;;;;;;;15.40;99.90;;;;;;4999735;28;923;-50
2021/10/16 08:51:27;;;;;;;;;;;15.40;99.90;;;;;;4998451;28;954;-50
2021/10/16 08:53:53;;;;;;;;;;;15.40;99.90;;;;;;4999189;28;905;-50
2021/10/16 08:56:19;;;;;;;;;;;15.40;99.90;;;;;;4999295;28;837;-50
2021/10/16 08:58:45;;;;;;;;;;;15.40;99.90;;;;;;4999214;28;789;-49
2021/10/16 09:01:11;;;;;;;;;;;15.40;99.90;;;;;;4999196;28;897;-50
2021/10/16 09:03:50;;;;;;;;;;;15.30;99.90;;;;;;4999346;28;1902;-50
2021/10/16 09:06:16;;;;;;;;;;;15.30;99.90;;;;;;4999689;28;754;-50
2021/10/16 09:08:42;;;;;;;;;;;15.30;99.90;;;;;;4998976;28;896;-49
2021/10/16 09:11:11;;;;;;;;;;;15.30;99.90;;;;;;4999089;28;850;-50
2021/10/16 09:13:43;;;;;;;;;;;15.30;99.90;;;;;;4999583;28;889;-48
2021/10/16 09:16:47;;;;;;;;;;;15.30;99.90;;;;;;4999121;28;819;-50
2021/10/16 09:19:15;;;;;;;;;;;15.20;99.90;;;;;;4978480;28;1427;-50
2021/10/16 09:21:43;;;;;;;;;;;15.20;99.90;;;;;;4977188;28;1902;-49
2021/10/16 09:24:09;;;;;;;;;;;15.30;99.90;;;;;;4977789;28;1001;-49
2021/10/16 09:26:36;;;;;;;;;;;15.20;99.90;;;;;;4977267;28;854;-49
2021/10/16 09:29:03;;;;;;;;;;;15.20;99.90;;;;;;4977652;28;887;-50
2021/10/16 09:31:31;;;;;;;;;;;15.20;99.90;;;;;;4977851;28;1077;-49
2021/10/16 09:33:57;;;;;;;;;;;15.20;99.90;;;;;;4977613;28;904;-49
2021/10/16 09:36:24;;;;;;;;;;;15.20;99.90;;;;;;4978232;28;925;-49
2021/10/16 09:38:50;;;;;;;;;;;15.30;99.90;;;;;;4978062;28;1107;-49
2021/10/16 09:41:23;;;;;;;;;;;15.40;99.90;;;;;;4977194;28;788;-49
2021/10/16 09:43:49;;;;;;;;;;;15.50;99.90;;;;;;4976825;28;973;-50
2021/10/16 09:46:16;;;;;;;;;;;15.50;99.90;;;;;;4977690;28;923;-48
2021/10/16 09:48:45;;;;;;;;;;;15.50;99.90;;;;;;4976973;28;919;-49
2021/10/16 09:51:12;;;;;;;;;;;15.50;99.90;;;;;;4998214;28;873;-50
2021/10/16 09:53:37;;;;;;;;;;;15.60;99.90;;;;;;4998286;28;827;-49
2021/10/16 09:56:04;;;;;;;;;;;15.60;99.90;;;;;;4998118;28;1030;-50
2021/10/16 09:58:32;;;;;;;;;;;15.60;99.90;;;;;;4998742;28;899;-50
2021/10/16 10:00:58;;;;;;;;;;;15.60;99.90;;;;;;4998081;28;900;-50
2021/10/16 10:03:26;;;;;;;;;;;15.60;99.90;;;;;;4998213;28;1973;-50
2021/10/16 10:05:53;;;;;;;;;;;15.60;99.90;;;;;;4998283;28;827;-50
2021/10/16 10:08:19;;;;;;;;;;;15.50;99.90;;;;;;4997891;28;1133;-49
2021/10/16 10:10:46;;;;;;;;;;;15.60;99.90;;;;;;4997874;28;1153;-50
2021/10/16 10:13:12;;;;;;;;;;;15.60;99.90;;;;;;4998169;28;759;-50
2021/10/16 10:15:38;;;;;;;;;;;15.60;99.90;;;;;;4997757;28;1230;-50
2021/10/16 10:20:50;;;;;;;;;;;15.50;99.90;;;;;;4997920;28;826;-51
2021/10/16 10:23:20;;;;;;;;;;;15.60;99.90;;;;;;4997683;28;1899;-49
2021/10/16 10:25:46;;;;;;;;;;;15.60;99.90;;;;;;4995993;28;858;-50
2021/10/16 10:28:12;;;;;;;;;;;15.60;99.90;;;;;;4996622;28;909;-50
2021/10/16 10:30:42;;;;;;;;;;;15.60;99.90;;;;;;4997803;28;810;-49
2021/10/16 10:33:20;;;;;;;;;;;15.60;99.90;;;;;;4998048;28;833;-49
2021/10/16 10:35:47;;;;;;;;;;;15.60;99.90;;;;;;4998016;28;1291;-50
2021/10/16 10:38:39;;;;;;;;;;;15.60;99.90;;;;;;4999734;28;1441;-50
2021/10/16 10:41:38;;;;;;;;;;;15.60;99.90;;;;;;4995354;28;1816;-50
2021/10/16 10:44:04;;;;;;;;;;;15.60;99.90;;;;;;4986120;28;1592;-50
2021/10/16 10:46:30;;;;;;;;;;;15.60;99.90;;;;;;4997201;28;908;-50
2021/10/16 10:49:09;;;;;;;;;;;15.60;99.90;;;;;;4997463;28;928;-50
2021/10/16 10:51:37;;;;;;;;;;;15.70;99.90;;;;;;4996752;28;914;-50
2021/10/16 10:54:10;;;;;;;;;;;15.70;99.90;;;;;;4995942;28;905;-48
2021/10/16 10:56:38;;;;;;;;;;;15.70;99.90;;;;;;4996913;28;909;-49
2021/10/16 10:59:07;;;;;;;;;;;15.70;99.90;;;;;;4997380;28;960;-49
2021/10/16 11:01:43;;;;;;;;;;;15.70;99.90;;;;;;4996591;28;1973;-49
2021/10/16 11:04:09;;;;;;;;;;;15.70;99.90;;;;;;4997276;28;860;-50
2021/10/16 11:06:35;;;;;;;;;;;15.80;99.90;;;;;;4996971;28;907;-50
2021/10/16 11:09:15;;;;;;;;;;;15.80;99.90;;;;;;5012427;28;1025;-49
2021/10/16 11:11:47;;;;;;;;;;;15.80;99.90;;;;;;4996776;28;761;-49
2021/10/16 11:14:13;;;;;;;;;;;15.80;99.90;;;;;;4996959;28;817;-49
2021/10/16 11:16:59;;;;;;;;;;;15.80;99.90;;;;;;4996893;28;833;-49
2021/10/16 11:19:26;;;;;;;;;;;15.80;99.90;;;;;;4996456;28;1089;-49
2021/10/16 11:21:52;;;;;;;;;;;15.80;99.90;;;;;;4996789;28;1976;-49
2021/10/16 11:24:19;;;;;;;;;;;15.80;99.90;;;;;;4996673;28;836;-49
2021/10/16 11:26:53;;;;;;;;;;;15.90;99.90;;;;;;4995092;28;1316;-49
2021/10/16 11:29:28;;;;;;;;;;;15.90;99.90;;;;;;4996213;28;751;-50
2021/10/16 11:32:12;;;;;;;;;;;15.90;99.90;;;;;;4996767;28;852;-50
2021/10/16 11:34:38;;;;;;;;;;;15.90;99.90;;;;;;4996681;28;818;-50
2021/10/16 11:37:04;;;;;;;;;;;16.00;99.90;;;;;;4996915;28;1005;-50
2021/10/16 11:39:30;;;;;;;;;;;16.00;99.90;;;;;;4997480;28;1101;-50
2021/10/16 11:41:56;;;;;;;;;;;16.00;99.90;;;;;;4996704;28;1914;-50
2021/10/16 11:44:22;;;;;;;;;;;16.00;99.90;;;;;;5012038;28;869;-50
2021/10/16 11:47:07;;;;;;;;;;;15.90;99.90;;;;;;4996940;28;841;-50
2021/10/16 11:49:33;;;;;;;;;;;15.90;99.90;;;;;;4997155;28;1033;-49
2021/10/16 11:51:59;;;;;;;;;;;15.90;99.90;;;;;;4996682;28;762;-49
2021/10/16 11:54:25;;;;;;;;;;;16.00;99.90;;;;;;4996935;28;794;-50
2021/10/16 11:56:55;;;;;;;;;;;16.10;99.90;;;;;;5011761;28;916;-50
2021/10/16 11:59:21;;;;;;;;;;;16.10;99.90;;;;;;4996722;28;878;-49
2021/10/16 12:01:47;;;;;;;;;;;16.20;99.90;;;;;;5011754;28;1981;-50
2021/10/16 12:04:14;;;;;;;;;;;16.30;99.90;;;;;;4999974;28;1309;-50
2021/10/16 12:06:40;;;;;;;;;;;16.30;99.90;;;;;;5000716;28;854;-50
2021/10/16 12:09:11;;;;;;;;;;;16.40;99.90;;;;;;5000595;28;868;-50
2021/10/16 12:11:38;;;;;;;;;;;16.40;99.90;;;;;;4999905;28;754;-51
2021/10/16 12:14:09;;;;;;;;;;;16.40;99.90;;;;;;5000399;28;877;-50
2021/10/16 12:16:35;;;;;;;;;;;16.40;99.90;;;;;;4999929;28;876;-50
2021/10/16 12:19:02;;;;;;;;;;;16.40;99.90;;;;;;5000291;28;884;-50
2021/10/16 12:21:38;;;;;;;;;;;16.30;99.90;;;;;;5000239;28;853;-50
2021/10/16 12:24:07;;;;;;;;;;;16.30;99.90;;;;;;5000197;28;1953;-48
2021/10/16 12:26:35;;;;;;;;;;;16.30;99.90;;;;;;4998735;28;1506;-48
2021/10/16 12:29:03;;;;;;;;;;;16.20;99.90;;;;;;5000066;28;901;-49
2021/10/16 12:31:29;;;;;;;;;;;16.20;99.90;;;;;;4999926;28;829;-50
2021/10/16 12:33:56;;;;;;;;;;;16.20;99.90;;;;;;5000048;28;905;-49
2021/10/16 12:36:31;;;;;;;;;;;16.10;99.90;;;;;;5002341;28;1386;-50
2021/10/16 12:38:57;;;;;;;;;;;16.10;99.90;;;;;;5000049;28;1166;-49
2021/10/16 12:41:33;;;;;;;;;;;16.10;99.90;;;;;;4999340;28;830;-49
2021/10/16 12:44:18;;;;;;;;;;;16.10;99.90;;;;;;5001397;28;1898;-49
2021/10/16 12:46:48;;;;;;;;;;;16.10;99.90;;;;;;4999754;28;794;-49
2021/10/16 12:49:39;;;;;;;;;;;16.00;99.90;;;;;;4999370;28;1216;-49
2021/10/16 12:52:23;;;;;;;;;;;16.00;99.90;;;;;;4999373;28;926;-49
2021/10/16 12:54:49;;;;;;;;;;;16.00;99.90;;;;;;4999501;28;758;-50
2021/10/16 12:57:16;;;;;;;;;;;16.00;99.90;;;;;;4998876;28;1015;-50
2021/10/16 12:59:42;;;;;;;;;;;16.00;99.90;;;;;;5014341;28;888;-50
2021/10/16 13:02:08;;;;;;;;;;;16.00;99.90;;;;;;4999426;28;1968;-50
2021/10/16 13:04:41;;;;;;;;;;;15.90;99.90;;;;;;4999258;28;732;-50
2021/10/16 13:07:06;;;;;;;;;;;15.90;99.90;;;;;;4999394;28;904;-49
2021/10/16 13:09:32;;;;;;;;;;;15.90;99.90;;;;;;4999609;28;815;-50
2021/10/16 13:11:58;;;;;;;;;;;15.90;99.90;;;;;;4999368;28;1035;-50
2021/10/16 13:14:24;;;;;;;;;;;15.90;99.90;;;;;;4998721;28;927;-50
2021/10/16 13:16:50;;;;;;;;;;;15.90;99.90;;;;;;4999316;28;777;-50
2021/10/16 13:19:17;;;;;;;;;;;15.90;99.90;;;;;;4999472;28;780;-50
2021/10/16 13:21:43;;;;;;;;;;;15.90;99.90;;;;;;4999056;28;890;-49
2021/10/16 13:24:09;;;;;;;;;;;15.90;99.90;;;;;;4998926;28;2037;-49
2021/10/16 13:26:35;;;;;;;;;;;15.90;99.90;;;;;;4998487;28;751;-49
2021/10/16 13:29:01;;;;;;;;;;;15.90;99.90;;;;;;5014898;28;1143;-49
2021/10/16 13:31:29;;;;;;;;;;;15.90;99.90;;;;;;5013999;28;1003;-49
2021/10/16 13:33:55;;;;;;;;;;;15.90;99.90;;;;;;4999527;28;1077;-49
2021/10/16 13:36:22;;;;;;;;;;;15.90;99.90;;;;;;4998816;28;750;-49
2021/10/16 13:38:48;;;;;;;;;;;15.90;99.90;;;;;;4998434;28;1093;-50
2021/10/16 13:41:14;;;;;;;;;;;15.80;99.90;;;;;;4997978;28;786;-50
2021/10/16 13:43:40;;;;;;;;;;;15.80;99.90;;;;;;4998420;28;1882;-50
2021/10/16 13:46:06;;;;;;;;;;;15.80;99.90;;;;;;4998524;28;866;-50
2021/10/16 13:48:32;;;;;;;;;;;15.80;99.90;;;;;;4998688;28;801;-50
2021/10/16 13:50:58;;;;;;;;;;;15.80;99.90;;;;;;4998509;28;894;-50
2021/10/16 13:53:24;;;;;;;;;;;15.80;99.90;;;;;;4998525;28;801;-51
2021/10/16 13:55:50;;;;;;;;;;;15.80;99.90;;;;;;4998351;28;969;-49
2021/10/16 13:58:16;;;;;;;;;;;15.80;99.90;;;;;;4998481;28;848;-49
2021/10/16 14:00:42;;;;;;;;;;;15.80;99.90;;;;;;4998471;28;892;-49
2021/10/16 14:03:08;;;;;;;;;;;15.70;99.90;;;;;;4998314;28;1902;-50
2021/10/16 14:05:34;;;;;;;;;;;15.80;99.90;;;;;;4997285;28;869;-50
2021/10/16 14:08:00;;;;;;;;;;;15.70;99.90;;;;;;4997971;28;865;-50
2021/10/16 14:10:26;;;;;;;;;;;15.70;99.90;;;;;;4998129;28;817;-50
2021/10/16 14:12:52;;;;;;;;;;;15.70;99.90;;;;;;4997929;28;778;-50
2021/10/16 14:15:18;;;;;;;;;;;15.70;99.90;;;;;;5013221;28;1642;-50
2021/10/16 14:17:43;;;;;;;;;;;15.70;99.90;;;;;;4997859;28;770;-50
2021/10/16 14:20:10;;;;;;;;;;;15.70;99.90;;;;;;4998557;28;1655;-50
2021/10/16 14:22:36;;;;;;;;;;;15.70;99.90;;;;;;4997644;28;1902;-50
2021/10/16 14:25:02;;;;;;;;;;;15.70;99.90;;;;;;4997142;28;909;-50
2021/10/16 14:27:29;;;;;;;;;;;15.70;99.90;;;;;;4997857;28;1327;-50
2021/10/16 14:29:55;;;;;;;;;;;15.70;99.90;;;;;;5000144;28;1441;-50
2021/10/16 14:32:22;;;;;;;;;;;15.70;99.90;;;;;;4997869;28;723;-50
2021/10/16 14:34:48;;;;;;;;;;;15.70;99.90;;;;;;5012919;28;928;-50
2021/10/16 14:37:14;;;;;;;;;;;15.70;99.90;;;;;;5012815;28;878;-51
2021/10/16 14:39:40;;;;;;;;;;;15.60;99.90;;;;;;4997459;28;1115;-50
2021/10/16 14:42:06;;;;;;;;;;;15.60;99.90;;;;;;5012020;28;1898;-49